sensor_id;sensor_type;location;lat;lon;timestamp;noise_LAeq;noise_LA_min;noise_LA_max;noise_LA01;noise_LA95
73206;Laerm;61415;55.702;37.460;2023-10-13T00:00:21;65.43;60.61;72.19;;
73206;Laerm;61415;55.702;37.460;2023-10-13T00:01:00;66.50;61.91;70.78;;
73206;Laerm;61415;55.702;37.460;2023-10-13T00:01:34;64.14;60.58;68.47;;
73206;Laerm;61415;55.702;37.460;2023-10-13T00:02:05;65.18;60.32;71.15;;
73206;Laerm;61415;55.702;37.460;2023-10-13T00:02:36;60.82;56.99;65.83;;
73206;Laerm;61415;55.702;37.460;2023-10-13T00:03:08;62.63;57.88;69.90;;
73206;Laerm;61415;55.702;37.460;2023-10-13T00:03:45;64.87;59.60;68.85;;
73206;Laerm;61415;55.702;37.460;2023-10-13T00:04:16;64.32;60.65;68.84;;
73206;Laerm;61415;55.702;37.460;2023-10-13T00:04:46;61.78;57.08;66.00;;
73206;Laerm;61415;55.702;37.460;2023-10-13T00:05:17;62.31;58.22;67.18;;
73206;Laerm;61415;55.702;37.460;2023-10-13T00:05:48;64.27;60.63;68.48;;
73206;Laerm;61415;55.702;37.460;2023-10-13T00:06:23;65.20;59.30;72.14;;
73206;Laerm;61415;55.702;37.460;2023-10-13T00:06:56;63.81;57.86;71.36;;
73206;Laerm;61415;55.702;37.460;2023-10-13T00:07:27;60.56;56.59;64.09;;
73206;Laerm;61415;55.702;37.460;2023-10-13T00:08:02;60.54;56.35;67.66;;
73206;Laerm;61415;55.702;37.460;2023-10-13T00:08:33;62.13;56.80;69.66;;
73206;Laerm;61415;55.702;37.460;2023-10-13T00:09:04;66.30;62.73;70.28;;
73206;Laerm;61415;55.702;37.460;2023-10-13T00:09:35;64.44;60.57;69.01;;
73206;Laerm;61415;55.702;37.460;2023-10-13T00:10:09;62.00;58.05;66.52;;
73206;Laerm;61415;55.702;37.460;2023-10-13T00:10:49;61.84;57.91;67.15;;
73206;Laerm;61415;55.702;37.460;2023-10-13T00:11:20;60.29;56.63;66.11;;
73206;Laerm;61415;55.702;37.460;2023-10-13T00:11:52;60.75;56.98;65.60;;
73206;Laerm;61415;55.702;37.460;2023-10-13T00:12:24;63.38;57.54;68.27;;
73206;Laerm;61415;55.702;37.460;2023-10-13T00:12:55;62.93;58.04;69.97;;
73206;Laerm;61415;55.702;37.460;2023-10-13T00:13:35;61.71;54.87;74.42;;
73206;Laerm;61415;55.702;37.460;2023-10-13T00:14:21;64.50;58.98;73.89;;
73206;Laerm;61415;55.702;37.460;2023-10-13T00:14:52;64.65;56.67;70.67;;
73206;Laerm;61415;55.702;37.460;2023-10-13T00:15:24;60.31;54.93;66.02;;
73206;Laerm;61415;55.702;37.460;2023-10-13T00:15:58;61.85;56.18;67.90;;
73206;Laerm;61415;55.702;37.460;2023-10-13T00:16:29;60.90;56.13;65.87;;
73206;Laerm;61415;55.702;37.460;2023-10-13T00:17:02;61.70;57.25;67.18;;
73206;Laerm;61415;55.702;37.460;2023-10-13T00:17:35;62.72;59.22;67.55;;
73206;Laerm;61415;55.702;37.460;2023-10-13T00:18:09;62.69;58.12;68.25;;
73206;Laerm;61415;55.702;37.460;2023-10-13T00:18:43;61.40;56.92;66.86;;
73206;Laerm;61415;55.702;37.460;2023-10-13T00:19:14;63.14;57.96;71.11;;
73206;Laerm;61415;55.702;37.460;2023-10-13T00:19:45;61.89;57.52;69.96;;
73206;Laerm;61415;55.702;37.460;2023-10-13T00:20:16;60.53;57.01;67.66;;
73206;Laerm;61415;55.702;37.460;2023-10-13T00:21:07;61.71;58.04;67.01;;
73206;Laerm;61415;55.702;37.460;2023-10-13T00:21:44;62.00;58.64;72.15;;
73206;Laerm;61415;55.702;37.460;2023-10-13T00:22:15;63.36;58.91;67.85;;
73206;Laerm;61415;55.702;37.460;2023-10-13T00:22:50;63.35;59.23;67.79;;
73206;Laerm;61415;55.702;37.460;2023-10-13T00:23:20;61.58;58.30;64.67;;
73206;Laerm;61415;55.702;37.460;2023-10-13T00:23:51;63.05;58.89;68.14;;
73206;Laerm;61415;55.702;37.460;2023-10-13T00:24:25;62.09;58.12;68.63;;
73206;Laerm;61415;55.702;37.460;2023-10-13T00:25:00;64.51;58.21;73.69;;
73206;Laerm;61415;55.702;37.460;2023-10-13T00:25:34;64.05;59.48;70.90;;
73206;Laerm;61415;55.702;37.460;2023-10-13T00:26:13;64.20;56.87;70.17;;
73206;Laerm;61415;55.702;37.460;2023-10-13T00:26:48;60.76;56.50;65.75;;
73206;Laerm;61415;55.702;37.460;2023-10-13T00:27:19;62.14;58.83;67.88;;
73206;Laerm;61415;55.702;37.460;2023-10-13T00:28:00;63.23;57.98;71.73;;
73206;Laerm;61415;55.702;37.460;2023-10-13T00:28:31;62.00;55.56;67.37;;
73206;Laerm;61415;55.702;37.460;2023-10-13T00:29:17;61.79;55.41;68.93;;
73206;Laerm;61415;55.702;37.460;2023-10-13T00:29:47;58.90;53.63;63.24;;
73206;Laerm;61415;55.702;37.460;2023-10-13T00:30:21;58.93;53.00;65.73;;
73206;Laerm;61415;55.702;37.460;2023-10-13T00:31:03;60.50;56.97;65.81;;
73206;Laerm;61415;55.702;37.460;2023-10-13T00:31:41;61.97;56.98;67.36;;
73206;Laerm;61415;55.702;37.460;2023-10-13T00:32:13;62.19;57.94;66.72;;
73206;Laerm;61415;55.702;37.460;2023-10-13T00:32:47;62.62;58.77;67.09;;
73206;Laerm;61415;55.702;37.460;2023-10-13T00:33:23;63.98;57.07;71.13;;
73206;Laerm;61415;55.702;37.460;2023-10-13T00:33:55;60.85;57.21;64.49;;
73206;Laerm;61415;55.702;37.460;2023-10-13T00:34:31;61.62;57.76;65.08;;
73206;Laerm;61415;55.702;37.460;2023-10-13T00:35:03;62.41;57.25;67.03;;
73206;Laerm;61415;55.702;37.460;2023-10-13T00:35:35;62.97;58.73;68.78;;
73206;Laerm;61415;55.702;37.460;2023-10-13T00:36:06;65.23;61.37;68.31;;
73206;Laerm;61415;55.702;37.460;2023-10-13T00:36:40;61.46;57.16;69.25;;
73206;Laerm;61415;55.702;37.460;2023-10-13T00:37:19;62.98;56.20;70.91;;
73206;Laerm;61415;55.702;37.460;2023-10-13T00:37:53;59.18;55.58;66.77;;
73206;Laerm;61415;55.702;37.460;2023-10-13T00:38:24;61.95;58.36;66.29;;
73206;Laerm;61415;55.702;37.460;2023-10-13T00:38:57;61.66;57.57;68.18;;
73206;Laerm;61415;55.702;37.460;2023-10-13T00:39:28;60.97;56.57;66.73;;
73206;Laerm;61415;55.702;37.460;2023-10-13T00:39:59;65.40;61.59;70.37;;
73206;Laerm;61415;55.702;37.460;2023-10-13T00:40:31;60.42;54.93;65.27;;
73206;Laerm;61415;55.702;37.460;2023-10-13T00:41:02;63.04;57.71;69.23;;
73206;Laerm;61415;55.702;37.460;2023-10-13T00:41:47;65.03;60.02;70.33;;
73206;Laerm;61415;55.702;37.460;2023-10-13T00:42:27;62.40;56.67;70.10;;
73206;Laerm;61415;55.702;37.460;2023-10-13T00:43:18;62.10;56.81;69.89;;
73206;Laerm;61415;55.702;37.460;2023-10-13T00:43:49;61.76;57.19;65.69;;
73206;Laerm;61415;55.702;37.460;2023-10-13T00:44:35;61.45;56.07;67.70;;
73206;Laerm;61415;55.702;37.460;2023-10-13T00:45:12;61.39;57.98;66.61;;
73206;Laerm;61415;55.702;37.460;2023-10-13T00:45:48;61.71;57.10;72.11;;
73206;Laerm;61415;55.702;37.460;2023-10-13T00:46:25;60.65;55.22;70.17;;
73206;Laerm;61415;55.702;37.460;2023-10-13T00:47:04;61.29;56.04;66.48;;
73206;Laerm;61415;55.702;37.460;2023-10-13T00:47:38;63.48;57.86;70.11;;
73206;Laerm;61415;55.702;37.460;2023-10-13T00:48:18;63.33;57.89;71.76;;
73206;Laerm;61415;55.702;37.460;2023-10-13T00:48:49;62.79;58.23;70.03;;
73206;Laerm;61415;55.702;37.460;2023-10-13T00:49:22;61.07;57.25;66.88;;
73206;Laerm;61415;55.702;37.460;2023-10-13T00:49:54;60.70;56.70;65.59;;
73206;Laerm;61415;55.702;37.460;2023-10-13T00:50:26;60.17;56.89;66.95;;
73206;Laerm;61415;55.702;37.460;2023-10-13T00:50:58;63.61;58.22;68.76;;
73206;Laerm;61415;55.702;37.460;2023-10-13T00:51:33;62.67;57.67;73.93;;
73206;Laerm;61415;55.702;37.460;2023-10-13T00:52:11;62.31;57.08;67.22;;
73206;Laerm;61415;55.702;37.460;2023-10-13T00:52:43;61.16;56.04;71.43;;
73206;Laerm;61415;55.702;37.460;2023-10-13T00:53:17;63.40;57.52;69.40;;
73206;Laerm;61415;55.702;37.460;2023-10-13T00:53:48;63.69;60.49;69.23;;
73206;Laerm;61415;55.702;37.460;2023-10-13T00:54:19;62.90;58.55;67.42;;
73206;Laerm;61415;55.702;37.460;2023-10-13T00:54:57;62.95;58.94;67.69;;
73206;Laerm;61415;55.702;37.460;2023-10-13T00:55:30;60.40;57.13;66.00;;
73206;Laerm;61415;55.702;37.460;2023-10-13T00:56:04;63.01;58.60;66.79;;
73206;Laerm;61415;55.702;37.460;2023-10-13T00:56:38;62.83;57.55;71.46;;
73206;Laerm;61415;55.702;37.460;2023-10-13T00:57:14;63.09;57.79;66.57;;
73206;Laerm;61415;55.702;37.460;2023-10-13T00:57:57;63.75;59.35;68.64;;
73206;Laerm;61415;55.702;37.460;2023-10-13T00:58:33;62.71;57.45;66.89;;
73206;Laerm;61415;55.702;37.460;2023-10-13T00:59:04;62.36;57.88;65.80;;
73206;Laerm;61415;55.702;37.460;2023-10-13T00:59:35;61.67;56.66;67.04;;
73206;Laerm;61415;55.702;37.460;2023-10-13T01:00:07;61.29;57.49;65.93;;
73206;Laerm;61415;55.702;37.460;2023-10-13T01:00:49;63.09;58.14;67.66;;
73206;Laerm;61415;55.702;37.460;2023-10-13T01:01:26;61.84;57.35;67.69;;
73206;Laerm;61415;55.702;37.460;2023-10-13T01:02:04;62.36;56.64;68.20;;
73206;Laerm;61415;55.702;37.460;2023-10-13T01:02:54;62.93;57.04;69.46;;
73206;Laerm;61415;55.702;37.460;2023-10-13T01:03:27;61.47;57.66;66.02;;
73206;Laerm;61415;55.702;37.460;2023-10-13T01:03:58;65.39;60.16;70.80;;
73206;Laerm;61415;55.702;37.460;2023-10-13T01:04:39;63.56;58.14;69.59;;
73206;Laerm;61415;55.702;37.460;2023-10-13T01:05:10;59.22;56.11;62.58;;
73206;Laerm;61415;55.702;37.460;2023-10-13T01:05:42;63.37;58.35;67.98;;
73206;Laerm;61415;55.702;37.460;2023-10-13T01:06:12;64.35;60.23;68.16;;
73206;Laerm;61415;55.702;37.460;2023-10-13T01:06:44;62.33;57.03;69.02;;
73206;Laerm;61415;55.702;37.460;2023-10-13T01:07:16;62.03;56.82;66.34;;
73206;Laerm;61415;55.702;37.460;2023-10-13T01:07:47;62.84;58.38;67.49;;
73206;Laerm;61415;55.702;37.460;2023-10-13T01:08:31;63.09;57.77;70.57;;
73206;Laerm;61415;55.702;37.460;2023-10-13T01:09:06;66.65;58.46;72.75;;
73206;Laerm;61415;55.702;37.460;2023-10-13T01:09:49;62.39;57.55;70.72;;
73206;Laerm;61415;55.702;37.460;2023-10-13T01:10:21;61.93;58.69;70.78;;
73206;Laerm;61415;55.702;37.460;2023-10-13T01:10:56;61.62;56.47;70.14;;
73206;Laerm;61415;55.702;37.460;2023-10-13T01:11:27;63.79;59.03;67.30;;
73206;Laerm;61415;55.702;37.460;2023-10-13T01:12:00;61.74;58.04;66.58;;
73206;Laerm;61415;55.702;37.460;2023-10-13T01:12:31;61.60;57.11;75.98;;
73206;Laerm;61415;55.702;37.460;2023-10-13T01:13:02;60.98;57.20;65.20;;
73206;Laerm;61415;55.702;37.460;2023-10-13T01:13:33;58.13;55.37;63.60;;
73206;Laerm;61415;55.702;37.460;2023-10-13T01:14:06;60.03;55.65;66.18;;
73206;Laerm;61415;55.702;37.460;2023-10-13T01:14:37;60.59;56.95;64.64;;
73206;Laerm;61415;55.702;37.460;2023-10-13T01:15:08;61.30;57.19;66.03;;
73206;Laerm;61415;55.702;37.460;2023-10-13T01:15:42;61.35;57.04;72.74;;
73206;Laerm;61415;55.702;37.460;2023-10-13T01:16:12;60.45;55.00;77.50;;
73206;Laerm;61415;55.702;37.460;2023-10-13T01:16:47;60.86;56.33;64.80;;
73206;Laerm;61415;55.702;37.460;2023-10-13T01:17:22;60.09;56.20;67.36;;
73206;Laerm;61415;55.702;37.460;2023-10-13T01:17:54;60.60;55.60;69.41;;
73206;Laerm;61415;55.702;37.460;2023-10-13T01:18:26;59.47;54.84;70.77;;
73206;Laerm;61415;55.702;37.460;2023-10-13T01:18:58;61.76;58.84;66.20;;
73206;Laerm;61415;55.702;37.460;2023-10-13T01:19:36;60.38;56.77;67.77;;
73206;Laerm;61415;55.702;37.460;2023-10-13T01:20:09;68.11;58.81;81.71;;
73206;Laerm;61415;55.702;37.460;2023-10-13T01:20:41;61.61;57.01;71.41;;
73206;Laerm;61415;55.702;37.460;2023-10-13T01:21:22;59.99;55.07;66.38;;
73206;Laerm;61415;55.702;37.460;2023-10-13T01:21:58;62.25;57.67;69.12;;
73206;Laerm;61415;55.702;37.460;2023-10-13T01:22:37;59.41;55.92;64.79;;
73206;Laerm;61415;55.702;37.460;2023-10-13T01:23:12;63.77;59.67;67.17;;
73206;Laerm;61415;55.702;37.460;2023-10-13T01:23:49;65.20;61.32;68.89;;
73206;Laerm;61415;55.702;37.460;2023-10-13T01:24:21;64.73;60.87;67.81;;
73206;Laerm;61415;55.702;37.460;2023-10-13T01:24:54;61.88;58.81;66.98;;
73206;Laerm;61415;55.702;37.460;2023-10-13T01:25:35;62.37;59.05;66.87;;
73206;Laerm;61415;55.702;37.460;2023-10-13T01:26:05;64.10;60.12;70.37;;
73206;Laerm;61415;55.702;37.460;2023-10-13T01:26:36;60.95;57.11;64.38;;
73206;Laerm;61415;55.702;37.460;2023-10-13T01:27:09;65.62;58.77;71.19;;
73206;Laerm;61415;55.702;37.460;2023-10-13T01:27:50;62.61;57.51;67.31;;
73206;Laerm;61415;55.702;37.460;2023-10-13T01:28:22;61.05;57.77;66.80;;
73206;Laerm;61415;55.702;37.460;2023-10-13T01:28:59;63.74;60.25;69.56;;
73206;Laerm;61415;55.702;37.460;2023-10-13T01:29:29;64.50;58.92;69.34;;
73206;Laerm;61415;55.702;37.460;2023-10-13T01:30:00;62.94;58.44;69.04;;
73206;Laerm;61415;55.702;37.460;2023-10-13T01:30:40;63.25;58.68;67.73;;
73206;Laerm;61415;55.702;37.460;2023-10-13T01:31:11;63.43;59.02;67.22;;
73206;Laerm;61415;55.702;37.460;2023-10-13T01:31:44;63.28;57.24;69.28;;
73206;Laerm;61415;55.702;37.460;2023-10-13T01:32:18;62.91;58.36;69.01;;
73206;Laerm;61415;55.702;37.460;2023-10-13T01:32:49;63.10;58.61;68.52;;
73206;Laerm;61415;55.702;37.460;2023-10-13T01:33:21;65.91;58.21;74.41;;
73206;Laerm;61415;55.702;37.460;2023-10-13T01:33:57;63.23;58.33;73.50;;
73206;Laerm;61415;55.702;37.460;2023-10-13T01:34:31;61.70;58.31;65.12;;
73206;Laerm;61415;55.702;37.460;2023-10-13T01:35:04;63.46;59.47;67.14;;
73206;Laerm;61415;55.702;37.460;2023-10-13T01:35:37;62.40;58.95;66.10;;
73206;Laerm;61415;55.702;37.460;2023-10-13T01:36:13;61.20;55.32;65.34;;
73206;Laerm;61415;55.702;37.460;2023-10-13T01:36:44;60.82;56.47;64.95;;
73206;Laerm;61415;55.702;37.460;2023-10-13T01:37:15;62.02;57.72;66.68;;
73206;Laerm;61415;55.702;37.460;2023-10-13T01:37:46;60.39;55.19;66.40;;
73206;Laerm;61415;55.702;37.460;2023-10-13T01:38:17;61.71;55.57;66.33;;
73206;Laerm;61415;55.702;37.460;2023-10-13T01:38:48;60.41;56.96;64.84;;
73206;Laerm;61415;55.702;37.460;2023-10-13T01:39:21;61.33;58.22;69.21;;
73206;Laerm;61415;55.702;37.460;2023-10-13T01:39:52;63.73;58.23;70.42;;
73206;Laerm;61415;55.702;37.460;2023-10-13T01:40:22;64.36;60.15;68.41;;
73206;Laerm;61415;55.702;37.460;2023-10-13T01:40:59;65.89;61.22;76.34;;
73206;Laerm;61415;55.702;37.460;2023-10-13T01:41:30;64.44;58.74;68.84;;
73206;Laerm;61415;55.702;37.460;2023-10-13T01:42:01;60.63;56.22;64.65;;
73206;Laerm;61415;55.702;37.460;2023-10-13T01:42:32;60.83;57.64;66.23;;
73206;Laerm;61415;55.702;37.460;2023-10-13T01:43:03;60.78;57.06;65.21;;
73206;Laerm;61415;55.702;37.460;2023-10-13T01:43:35;61.18;57.11;66.11;;
73206;Laerm;61415;55.702;37.460;2023-10-13T01:44:06;62.56;56.62;67.76;;
73206;Laerm;61415;55.702;37.460;2023-10-13T01:44:37;62.48;57.99;66.45;;
73206;Laerm;61415;55.702;37.460;2023-10-13T01:45:07;64.04;59.56;69.04;;
73206;Laerm;61415;55.702;37.460;2023-10-13T01:45:38;61.85;57.83;65.23;;
73206;Laerm;61415;55.702;37.460;2023-10-13T01:46:20;62.67;58.11;67.14;;
73206;Laerm;61415;55.702;37.460;2023-10-13T01:46:52;61.16;58.23;71.16;;
73206;Laerm;61415;55.702;37.460;2023-10-13T01:47:23;61.49;56.84;67.91;;
73206;Laerm;61415;55.702;37.460;2023-10-13T01:47:57;62.02;57.84;65.72;;
73206;Laerm;61415;55.702;37.460;2023-10-13T01:48:27;64.20;60.73;70.48;;
73206;Laerm;61415;55.702;37.460;2023-10-13T01:48:58;63.92;58.95;68.91;;
73206;Laerm;61415;55.702;37.460;2023-10-13T01:49:30;63.74;60.12;68.49;;
73206;Laerm;61415;55.702;37.460;2023-10-13T01:50:00;64.68;61.54;69.42;;
73206;Laerm;61415;55.702;37.460;2023-10-13T01:50:37;64.55;61.03;68.67;;
73206;Laerm;61415;55.702;37.460;2023-10-13T01:51:08;64.07;59.87;69.54;;
73206;Laerm;61415;55.702;37.460;2023-10-13T01:51:41;62.53;57.82;67.96;;
73206;Laerm;61415;55.702;37.460;2023-10-13T01:52:13;63.50;57.64;67.32;;
73206;Laerm;61415;55.702;37.460;2023-10-13T01:52:47;60.99;57.06;65.58;;
73206;Laerm;61415;55.702;37.460;2023-10-13T01:53:18;60.59;56.82;64.33;;
73206;Laerm;61415;55.702;37.460;2023-10-13T01:53:50;60.61;57.01;67.55;;
73206;Laerm;61415;55.702;37.460;2023-10-13T01:54:26;61.32;56.93;67.92;;
73206;Laerm;61415;55.702;37.460;2023-10-13T01:54:58;62.80;58.03;68.19;;
73206;Laerm;61415;55.702;37.460;2023-10-13T01:55:31;62.52;58.66;70.79;;
73206;Laerm;61415;55.702;37.460;2023-10-13T01:56:09;65.83;58.90;73.19;;
73206;Laerm;61415;55.702;37.460;2023-10-13T01:56:40;61.79;57.65;69.47;;
73206;Laerm;61415;55.702;37.460;2023-10-13T01:57:14;64.51;60.09;68.77;;
73206;Laerm;61415;55.702;37.460;2023-10-13T01:57:47;60.71;57.24;65.46;;
73206;Laerm;61415;55.702;37.460;2023-10-13T01:58:18;63.69;59.06;69.12;;
73206;Laerm;61415;55.702;37.460;2023-10-13T01:58:53;66.72;59.17;73.35;;
73206;Laerm;61415;55.702;37.460;2023-10-13T01:59:24;66.66;59.00;73.04;;
73206;Laerm;61415;55.702;37.460;2023-10-13T01:59:56;62.39;59.44;67.43;;
73206;Laerm;61415;55.702;37.460;2023-10-13T02:00:33;61.48;57.53;68.40;;
73206;Laerm;61415;55.702;37.460;2023-10-13T02:01:09;63.69;58.25;69.93;;
73206;Laerm;61415;55.702;37.460;2023-10-13T02:01:41;62.44;59.19;68.43;;
73206;Laerm;61415;55.702;37.460;2023-10-13T02:02:12;63.51;58.60;67.68;;
73206;Laerm;61415;55.702;37.460;2023-10-13T02:02:43;65.34;61.92;71.24;;
73206;Laerm;61415;55.702;37.460;2023-10-13T02:03:15;61.08;55.02;66.36;;
73206;Laerm;61415;55.702;37.460;2023-10-13T02:03:46;60.87;56.35;65.37;;
73206;Laerm;61415;55.702;37.460;2023-10-13T02:04:19;63.32;59.15;69.43;;
73206;Laerm;61415;55.702;37.460;2023-10-13T02:04:51;63.14;59.70;67.57;;
73206;Laerm;61415;55.702;37.460;2023-10-13T02:05:32;62.81;58.22;67.72;;
73206;Laerm;61415;55.702;37.460;2023-10-13T02:06:07;61.97;58.03;66.50;;
73206;Laerm;61415;55.702;37.460;2023-10-13T02:06:40;62.87;58.26;67.23;;
73206;Laerm;61415;55.702;37.460;2023-10-13T02:07:11;64.54;59.48;68.70;;
73206;Laerm;61415;55.702;37.460;2023-10-13T02:07:45;60.50;56.24;66.47;;
73206;Laerm;61415;55.702;37.460;2023-10-13T02:08:17;62.80;56.06;68.48;;
73206;Laerm;61415;55.702;37.460;2023-10-13T02:08:52;63.73;58.71;72.28;;
73206;Laerm;61415;55.702;37.460;2023-10-13T02:09:27;66.51;59.03;70.94;;
73206;Laerm;61415;55.702;37.460;2023-10-13T02:10:00;62.61;57.41;67.43;;
73206;Laerm;61415;55.702;37.460;2023-10-13T02:10:35;64.38;59.19;69.16;;
73206;Laerm;61415;55.702;37.460;2023-10-13T02:11:13;63.10;59.38;67.02;;
73206;Laerm;61415;55.702;37.460;2023-10-13T02:11:49;63.66;59.32;69.33;;
73206;Laerm;61415;55.702;37.460;2023-10-13T02:12:24;64.81;60.60;71.39;;
73206;Laerm;61415;55.702;37.460;2023-10-13T02:13:07;63.78;59.90;68.97;;
73206;Laerm;61415;55.702;37.460;2023-10-13T02:13:45;63.45;58.33;67.21;;
73206;Laerm;61415;55.702;37.460;2023-10-13T02:14:24;63.11;57.32;66.95;;
73206;Laerm;61415;55.702;37.460;2023-10-13T02:14:56;65.10;59.56;69.10;;
73206;Laerm;61415;55.702;37.460;2023-10-13T02:15:31;63.68;59.65;71.84;;
73206;Laerm;61415;55.702;37.460;2023-10-13T02:16:05;66.35;60.65;70.07;;
73206;Laerm;61415;55.702;37.460;2023-10-13T02:16:40;63.69;58.09;69.52;;
73206;Laerm;61415;55.702;37.460;2023-10-13T02:17:11;63.40;57.72;69.23;;
73206;Laerm;61415;55.702;37.460;2023-10-13T02:17:47;64.46;60.00;68.87;;
73206;Laerm;61415;55.702;37.460;2023-10-13T02:18:22;63.46;59.24;67.86;;
73206;Laerm;61415;55.702;37.460;2023-10-13T02:19:04;62.25;57.57;71.11;;
73206;Laerm;61415;55.702;37.460;2023-10-13T02:19:35;63.08;59.37;72.19;;
73206;Laerm;61415;55.702;37.460;2023-10-13T02:20:06;64.04;58.67;69.14;;
73206;Laerm;61415;55.702;37.460;2023-10-13T02:20:38;65.93;61.60;71.17;;
73206;Laerm;61415;55.702;37.460;2023-10-13T02:21:13;66.22;61.28;72.90;;
73206;Laerm;61415;55.702;37.460;2023-10-13T02:21:44;62.33;57.91;67.25;;
73206;Laerm;61415;55.702;37.460;2023-10-13T02:22:15;64.43;60.87;68.55;;
73206;Laerm;61415;55.702;37.460;2023-10-13T02:22:58;65.43;62.05;72.23;;
73206;Laerm;61415;55.702;37.460;2023-10-13T02:23:29;67.84;62.63;72.86;;
73206;Laerm;61415;55.702;37.460;2023-10-13T02:24:00;65.33;62.40;68.58;;
73206;Laerm;61415;55.702;37.460;2023-10-13T02:24:30;63.38;60.28;68.32;;
73206;Laerm;61415;55.702;37.460;2023-10-13T02:25:01;66.00;61.85;72.05;;
73206;Laerm;61415;55.702;37.460;2023-10-13T02:25:36;62.28;57.90;70.67;;
73206;Laerm;61415;55.702;37.460;2023-10-13T02:26:13;62.27;58.58;67.90;;
73206;Laerm;61415;55.702;37.460;2023-10-13T02:27:00;64.03;59.72;68.99;;
73206;Laerm;61415;55.702;37.460;2023-10-13T02:27:39;64.25;59.23;69.73;;
73206;Laerm;61415;55.702;37.460;2023-10-13T02:28:13;63.35;59.36;68.09;;
73206;Laerm;61415;55.702;37.460;2023-10-13T02:28:45;63.96;60.66;69.87;;
73206;Laerm;61415;55.702;37.460;2023-10-13T02:29:21;66.07;61.93;71.38;;
73206;Laerm;61415;55.702;37.460;2023-10-13T02:29:52;63.68;59.48;67.41;;
73206;Laerm;61415;55.702;37.460;2023-10-13T02:30:29;66.00;61.22;70.30;;
73206;Laerm;61415;55.702;37.460;2023-10-13T02:31:03;65.25;60.29;68.83;;
73206;Laerm;61415;55.702;37.460;2023-10-13T02:31:34;62.71;59.17;70.68;;
73206;Laerm;61415;55.702;37.460;2023-10-13T02:32:06;67.23;62.63;72.74;;
73206;Laerm;61415;55.702;37.460;2023-10-13T02:32:49;65.12;60.61;70.42;;
73206;Laerm;61415;55.702;37.460;2023-10-13T02:33:19;66.83;62.67;71.34;;
73206;Laerm;61415;55.702;37.460;2023-10-13T02:33:59;64.87;60.80;70.96;;
73206;Laerm;61415;55.702;37.460;2023-10-13T02:34:31;65.19;61.07;70.30;;
73206;Laerm;61415;55.702;37.460;2023-10-13T02:35:02;63.65;60.09;67.88;;
73206;Laerm;61415;55.702;37.460;2023-10-13T02:35:38;66.24;61.03;73.34;;
73206;Laerm;61415;55.702;37.460;2023-10-13T02:36:12;63.27;59.93;67.99;;
73206;Laerm;61415;55.702;37.460;2023-10-13T02:36:43;66.51;60.78;71.68;;
73206;Laerm;61415;55.702;37.460;2023-10-13T02:37:20;60.34;56.75;66.31;;
73206;Laerm;61415;55.702;37.460;2023-10-13T02:37:50;59.95;56.35;65.45;;
73206;Laerm;61415;55.702;37.460;2023-10-13T02:38:26;64.18;59.69;68.68;;
73206;Laerm;61415;55.702;37.460;2023-10-13T02:39:09;63.56;60.47;66.42;;
73206;Laerm;61415;55.702;37.460;2023-10-13T02:39:40;65.14;61.57;70.01;;
73206;Laerm;61415;55.702;37.460;2023-10-13T02:40:14;66.33;62.20;71.44;;
73206;Laerm;61415;55.702;37.460;2023-10-13T02:40:44;64.71;60.30;70.02;;
73206;Laerm;61415;55.702;37.460;2023-10-13T02:41:16;63.53;57.69;71.64;;
73206;Laerm;61415;55.702;37.460;2023-10-13T02:42:07;65.31;58.42;72.93;;
73206;Laerm;61415;55.702;37.460;2023-10-13T02:42:38;66.81;62.79;73.71;;
73206;Laerm;61415;55.702;37.460;2023-10-13T02:43:09;65.19;61.97;69.91;;
73206;Laerm;61415;55.702;37.460;2023-10-13T02:43:41;66.80;62.61;69.98;;
73206;Laerm;61415;55.702;37.460;2023-10-13T02:44:14;64.99;60.71;69.19;;
73206;Laerm;61415;55.702;37.460;2023-10-13T02:45:10;64.53;60.04;69.58;;
73206;Laerm;61415;55.702;37.460;2023-10-13T02:45:51;65.20;60.12;69.08;;
73206;Laerm;61415;55.702;37.460;2023-10-13T02:46:22;63.68;60.23;69.60;;
73206;Laerm;61415;55.702;37.460;2023-10-13T02:46:54;64.06;60.81;69.90;;
73206;Laerm;61415;55.702;37.460;2023-10-13T02:47:26;65.30;61.22;70.13;;
73206;Laerm;61415;55.702;37.460;2023-10-13T02:47:57;64.30;60.54;71.36;;
73206;Laerm;61415;55.702;37.460;2023-10-13T02:48:43;64.69;61.19;70.24;;
73206;Laerm;61415;55.702;37.460;2023-10-13T02:49:16;67.71;61.81;72.92;;
73206;Laerm;61415;55.702;37.460;2023-10-13T02:49:49;67.77;63.16;71.46;;
73206;Laerm;61415;55.702;37.460;2023-10-13T02:50:20;67.57;62.32;71.79;;
73206;Laerm;61415;55.702;37.460;2023-10-13T02:50:55;66.50;63.29;73.70;;
73206;Laerm;61415;55.702;37.460;2023-10-13T02:51:26;64.26;58.81;72.46;;
73206;Laerm;61415;55.702;37.460;2023-10-13T02:52:06;64.68;59.62;69.29;;
73206;Laerm;61415;55.702;37.460;2023-10-13T02:52:39;65.54;61.88;69.95;;
73206;Laerm;61415;55.702;37.460;2023-10-13T02:53:12;64.80;60.84;70.62;;
73206;Laerm;61415;55.702;37.460;2023-10-13T02:53:43;64.52;60.38;69.48;;
73206;Laerm;61415;55.702;37.460;2023-10-13T02:54:17;65.86;61.80;69.74;;
73206;Laerm;61415;55.702;37.460;2023-10-13T02:54:51;66.98;62.48;72.04;;
73206;Laerm;61415;55.702;37.460;2023-10-13T02:55:22;66.87;62.28;71.98;;
73206;Laerm;61415;55.702;37.460;2023-10-13T02:55:57;64.42;60.31;70.28;;
73206;Laerm;61415;55.702;37.460;2023-10-13T02:56:35;68.73;61.97;72.59;;
73206;Laerm;61415;55.702;37.460;2023-10-13T02:57:07;67.37;62.80;71.30;;
73206;Laerm;61415;55.702;37.460;2023-10-13T02:57:37;66.19;63.37;68.83;;
73206;Laerm;61415;55.702;37.460;2023-10-13T02:58:09;64.83;61.16;68.61;;
73206;Laerm;61415;55.702;37.460;2023-10-13T02:58:40;66.31;63.27;71.42;;
73206;Laerm;61415;55.702;37.460;2023-10-13T02:59:16;67.12;63.60;70.44;;
73206;Laerm;61415;55.702;37.460;2023-10-13T02:59:50;67.77;65.01;71.78;;
73206;Laerm;61415;55.702;37.460;2023-10-13T03:00:42;64.64;61.17;74.20;;
73206;Laerm;61415;55.702;37.460;2023-10-13T03:01:13;66.80;63.55;71.10;;
73206;Laerm;61415;55.702;37.460;2023-10-13T03:01:49;67.78;63.89;72.12;;
73206;Laerm;61415;55.702;37.460;2023-10-13T03:02:23;67.98;62.60;72.59;;
73206;Laerm;61415;55.702;37.460;2023-10-13T03:02:58;64.65;61.23;72.15;;
73206;Laerm;61415;55.702;37.460;2023-10-13T03:03:29;67.64;62.69;72.29;;
73206;Laerm;61415;55.702;37.460;2023-10-13T03:04:01;67.63;63.04;72.69;;
73206;Laerm;61415;55.702;37.460;2023-10-13T03:04:33;67.32;63.90;70.98;;
73206;Laerm;61415;55.702;37.460;2023-10-13T03:05:04;65.53;60.28;70.57;;
73206;Laerm;61415;55.702;37.460;2023-10-13T03:05:44;65.55;60.08;70.35;;
73206;Laerm;61415;55.702;37.460;2023-10-13T03:06:16;66.84;62.72;72.86;;
73206;Laerm;61415;55.702;37.460;2023-10-13T03:06:47;68.64;65.57;71.92;;
73206;Laerm;61415;55.702;37.460;2023-10-13T03:07:18;67.70;64.23;71.58;;
73206;Laerm;61415;55.702;37.460;2023-10-13T03:07:58;67.42;62.91;73.43;;
73206;Laerm;61415;55.702;37.460;2023-10-13T03:08:34;69.59;64.70;73.08;;